Haley, North Dakota
Current Conditions -  °F | °C
As of 8:53 AM on Wednesday 22 Oct 2014 (Local Time) from KHEI Reporting Station
Clear Clear  
Wind Chill: 44°   Ceiling: Unl
Heat Index: 49°   Visibility: 10mi
Dew Point: 40°   Wind: 13mph
Humidity: 71%   Direction: 270°W
Pressure: 29.92"   Gusts: NA
Location:  46.1126°N, 103.12°W
Report Text: KHEI 221453Z AUTO 27011KT 10SM CLR 09/04 A2992 RMK AO2 SLP129 T00940044 53016
Loading
Personal Weather Stations






























Interactive Weather Map New forecast layout! Learn more

10-Day Weather Forecast

Advertisements
Track Severe Weather on mobile